sensor_id;sensor_type;location;lat;lon;timestamp;pressure;altitude;pressure_sealevel;temperature;humidity
51460;BME280;37534;39.772;2.718;2023-04-25T00:31:50;101145.47;;;15.26;100.00
51460;BME280;37534;39.772;2.718;2023-04-25T00:34:15;101135.47;;;15.15;100.00
51460;BME280;37534;39.772;2.718;2023-04-25T00:36:40;101154.78;;;15.31;100.00
51460;BME280;37534;39.772;2.718;2023-04-25T00:39:06;101143.41;;;15.34;100.00
51460;BME280;37534;39.772;2.718;2023-04-25T00:41:32;101130.91;;;15.21;100.00
51460;BME280;37534;39.772;2.718;2023-04-25T00:43:59;101134.59;;;15.16;100.00
51460;BME280;37534;39.772;2.718;2023-04-25T00:46:24;101127.69;;;15.15;100.00
51460;BME280;37534;39.772;2.718;2023-04-25T00:48:50;101140.63;;;15.16;100.00
51460;BME280;37534;39.772;2.718;2023-04-25T00:51:19;101128.75;;;15.09;100.00
51460;BME280;37534;39.772;2.718;2023-04-25T00:53:45;101133.59;;;15.18;100.00
51460;BME280;37534;39.772;2.718;2023-04-25T00:56:11;101137.97;;;15.18;100.00
51460;BME280;37534;39.772;2.718;2023-04-25T00:58:37;101128.47;;;15.17;100.00
51460;BME280;37534;39.772;2.718;2023-04-25T01:01:03;101125.66;;;15.23;100.00
51460;BME280;37534;39.772;2.718;2023-04-25T01:03:32;101125.22;;;15.12;100.00
51460;BME280;37534;39.772;2.718;2023-04-25T01:05:58;101119.09;;;15.13;100.00
51460;BME280;37534;39.772;2.718;2023-04-25T01:08:24;101121.38;;;15.20;100.00
51460;BME280;37534;39.772;2.718;2023-04-25T01:10:52;101116.81;;;15.27;100.00
51460;BME280;37534;39.772;2.718;2023-04-25T01:13:18;101134.16;;;15.49;100.00
51460;BME280;37534;39.772;2.718;2023-04-25T01:15:44;101128.69;;;15.99;100.00
51460;BME280;37534;39.772;2.718;2023-04-25T01:18:09;101120.63;;;16.26;100.00
51460;BME280;37534;39.772;2.718;2023-04-25T01:20:37;101102.00;;;16.35;97.53
51460;BME280;37534;39.772;2.718;2023-04-25T01:23:02;101107.72;;;16.43;100.00
51460;BME280;37534;39.772;2.718;2023-04-25T01:25:29;101113.94;;;16.39;96.13
51460;BME280;37534;39.772;2.718;2023-04-25T01:27:56;101105.50;;;16.34;96.06
51460;BME280;37534;39.772;2.718;2023-04-25T01:30:22;101106.94;;;16.21;94.35
51460;BME280;37534;39.772;2.718;2023-04-25T01:32:48;101092.44;;;15.94;96.08
51460;BME280;37534;39.772;2.718;2023-04-25T01:35:14;101089.03;;;16.33;100.00
51460;BME280;37534;39.772;2.718;2023-04-25T01:37:41;101079.19;;;16.40;100.00
51460;BME280;37534;39.772;2.718;2023-04-25T01:40:08;101096.69;;;16.76;100.00
51460;BME280;37534;39.772;2.718;2023-04-25T01:42:35;101084.53;;;16.96;100.00
51460;BME280;37534;39.772;2.718;2023-04-25T01:45:02;101086.19;;;17.16;100.00
51460;BME280;37534;39.772;2.718;2023-04-25T01:47:28;101084.75;;;17.27;100.00
51460;BME280;37534;39.772;2.718;2023-04-25T01:49:54;101086.81;;;17.57;100.00
51460;BME280;37534;39.772;2.718;2023-04-25T01:52:19;101050.19;;;17.05;95.83
51460;BME280;37534;39.772;2.718;2023-04-25T01:54:45;101083.19;;;16.87;92.48
51460;BME280;37534;39.772;2.718;2023-04-25T01:57:11;101081.38;;;16.49;95.81
51460;BME280;37534;39.772;2.718;2023-04-25T01:59:37;101079.31;;;16.37;97.53
51460;BME280;37534;39.772;2.718;2023-04-25T02:02:03;101073.88;;;16.23;98.31
51460;BME280;37534;39.772;2.718;2023-04-25T02:04:30;101099.03;;;16.24;100.00
51460;BME280;37534;39.772;2.718;2023-04-25T02:06:55;101093.69;;;16.06;100.00
51460;BME280;37534;39.772;2.718;2023-04-25T02:09:21;101074.81;;;15.81;100.00
51460;BME280;37534;39.772;2.718;2023-04-25T02:11:46;101099.81;;;15.85;100.00
51460;BME280;37534;39.772;2.718;2023-04-25T02:14:12;101099.00;;;15.83;100.00
51460;BME280;37534;39.772;2.718;2023-04-25T02:16:37;101103.78;;;15.71;100.00
51460;BME280;37534;39.772;2.718;2023-04-25T02:19:05;101103.00;;;15.69;100.00
51460;BME280;37534;39.772;2.718;2023-04-25T02:21:31;101111.03;;;15.63;100.00
51460;BME280;37534;39.772;2.718;2023-04-25T02:23:57;101111.41;;;15.54;100.00
51460;BME280;37534;39.772;2.718;2023-04-25T02:26:22;101107.38;;;15.47;100.00
51460;BME280;37534;39.772;2.718;2023-04-25T02:28:49;101114.50;;;15.42;100.00
51460;BME280;37534;39.772;2.718;2023-04-25T02:31:15;101093.78;;;15.18;100.00
51460;BME280;37534;39.772;2.718;2023-04-25T02:33:41;101127.56;;;15.40;100.00
51460;BME280;37534;39.772;2.718;2023-04-25T02:36:07;101126.00;;;15.36;100.00
51460;BME280;37534;39.772;2.718;2023-04-25T02:38:33;101129.81;;;15.27;100.00
51460;BME280;37534;39.772;2.718;2023-04-25T02:40:59;101137.44;;;15.08;100.00
51460;BME280;37534;39.772;2.718;2023-04-25T02:43:25;101129.22;;;14.97;100.00
51460;BME280;37534;39.772;2.718;2023-04-25T02:45:51;101142.41;;;14.92;100.00
51460;BME280;37534;39.772;2.718;2023-04-25T02:48:16;101136.28;;;14.93;100.00
51460;BME280;37534;39.772;2.718;2023-04-25T02:50:42;101121.84;;;14.86;100.00
51460;BME280;37534;39.772;2.718;2023-04-25T02:53:07;101080.66;;;14.52;100.00
51460;BME280;37534;39.772;2.718;2023-04-25T02:55:33;101105.03;;;14.73;100.00
51460;BME280;37534;39.772;2.718;2023-04-25T02:57:58;101101.06;;;14.86;100.00
51460;BME280;37534;39.772;2.718;2023-04-25T03:00:24;101109.63;;;14.88;100.00
51460;BME280;37534;39.772;2.718;2023-04-25T03:02:50;101124.69;;;14.80;100.00
51460;BME280;37534;39.772;2.718;2023-04-25T03:05:16;101114.84;;;14.64;100.00
51460;BME280;37534;39.772;2.718;2023-04-25T03:07:42;101091.88;;;14.52;100.00
51460;BME280;37534;39.772;2.718;2023-04-25T03:10:09;101108.97;;;14.59;100.00
51460;BME280;37534;39.772;2.718;2023-04-25T03:12:34;101111.56;;;14.59;100.00
51460;BME280;37534;39.772;2.718;2023-04-25T03:15:00;101107.25;;;14.58;100.00
51460;BME280;37534;39.772;2.718;2023-04-25T03:17:26;101094.53;;;14.51;100.00
51460;BME280;37534;39.772;2.718;2023-04-25T03:19:51;101092.00;;;14.49;100.00
51460;BME280;37534;39.772;2.718;2023-04-25T03:22:17;101099.78;;;14.49;100.00
51460;BME280;37534;39.772;2.718;2023-04-25T03:24:42;101099.88;;;14.71;100.00
51460;BME280;37534;39.772;2.718;2023-04-25T03:27:08;101103.72;;;14.61;100.00
51460;BME280;37534;39.772;2.718;2023-04-25T03:29:34;101088.72;;;14.44;100.00
51460;BME280;37534;39.772;2.718;2023-04-25T03:31:59;101070.44;;;14.47;100.00
51460;BME280;37534;39.772;2.718;2023-04-25T03:34:25;101084.03;;;14.54;100.00
51460;BME280;37534;39.772;2.718;2023-04-25T03:36:51;101090.84;;;14.58;100.00
51460;BME280;37534;39.772;2.718;2023-04-25T03:39:17;101092.69;;;14.54;100.00
51460;BME280;37534;39.772;2.718;2023-04-25T03:41:42;101077.50;;;14.43;100.00
51460;BME280;37534;39.772;2.718;2023-04-25T03:44:08;101081.59;;;14.49;100.00
51460;BME280;37534;39.772;2.718;2023-04-25T03:46:33;101071.47;;;14.67;100.00
51460;BME280;37534;39.772;2.718;2023-04-25T03:48:59;101077.88;;;14.56;100.00
51460;BME280;37534;39.772;2.718;2023-04-25T03:51:25;101072.25;;;14.45;100.00
51460;BME280;37534;39.772;2.718;2023-04-25T03:53:51;101093.59;;;14.53;100.00
51460;BME280;37534;39.772;2.718;2023-04-25T03:56:17;101082.69;;;14.43;100.00
51460;BME280;37534;39.772;2.718;2023-04-25T03:58:42;101091.94;;;14.51;100.00
51460;BME280;37534;39.772;2.718;2023-04-25T04:01:08;101085.28;;;14.43;100.00
51460;BME280;37534;39.772;2.718;2023-04-25T04:03:34;101098.59;;;14.59;100.00
51460;BME280;37534;39.772;2.718;2023-04-25T04:06:06;101086.38;;;14.61;100.00
51460;BME280;37534;39.772;2.718;2023-04-25T04:08:33;101095.94;;;14.61;100.00
51460;BME280;37534;39.772;2.718;2023-04-25T04:10:59;101085.19;;;14.47;100.00
51460;BME280;37534;39.772;2.718;2023-04-25T04:13:28;101088.94;;;14.38;100.00
51460;BME280;37534;39.772;2.718;2023-04-25T04:15:54;101085.13;;;14.48;100.00
51460;BME280;37534;39.772;2.718;2023-04-25T04:18:20;101035.56;;;14.07;100.00
51460;BME280;37534;39.772;2.718;2023-04-25T04:20:46;101085.31;;;14.42;100.00
51460;BME280;37534;39.772;2.718;2023-04-25T04:23:12;101074.06;;;14.43;100.00
51460;BME280;37534;39.772;2.718;2023-04-25T04:25:37;101072.69;;;14.33;100.00
51460;BME280;37534;39.772;2.718;2023-04-25T04:28:05;101071.91;;;14.31;100.00
51460;BME280;37534;39.772;2.718;2023-04-25T04:30:31;101060.84;;;14.25;100.00
51460;BME280;37534;39.772;2.718;2023-04-25T04:32:57;101072.91;;;14.26;100.00
51460;BME280;37534;39.772;2.718;2023-04-25T04:35:23;101060.03;;;14.23;100.00
51460;BME280;37534;39.772;2.718;2023-04-25T04:37:50;101066.91;;;14.24;100.00
51460;BME280;37534;39.772;2.718;2023-04-25T04:40:16;101072.91;;;14.26;100.00
51460;BME280;37534;39.772;2.718;2023-04-25T04:42:45;101077.28;;;14.24;100.00
51460;BME280;37534;39.772;2.718;2023-04-25T04:45:11;101081.09;;;14.39;100.00
51460;BME280;37534;39.772;2.718;2023-04-25T04:47:37;101088.09;;;14.37;100.00
51460;BME280;37534;39.772;2.718;2023-04-25T04:50:07;101080.25;;;14.39;100.00
51460;BME280;37534;39.772;2.718;2023-04-25T04:52:35;101087.13;;;14.40;100.00
51460;BME280;37534;39.772;2.718;2023-04-25T04:55:02;101075.63;;;14.23;100.00
51460;BME280;37534;39.772;2.718;2023-04-25T04:57:28;101081.59;;;14.25;100.00
51460;BME280;37534;39.772;2.718;2023-04-25T04:59:54;101079.28;;;14.18;100.00
51460;BME280;37534;39.772;2.718;2023-04-25T05:02:19;101078.16;;;14.25;100.00
51460;BME280;37534;39.772;2.718;2023-04-25T05:04:45;101080.84;;;14.22;100.00
51460;BME280;37534;39.772;2.718;2023-04-25T05:07:11;101083.31;;;14.26;100.00
51460;BME280;37534;39.772;2.718;2023-04-25T05:09:36;101095.50;;;14.23;100.00
51460;BME280;37534;39.772;2.718;2023-04-25T05:12:02;101095.63;;;14.20;100.00
51460;BME280;37534;39.772;2.718;2023-04-25T05:14:28;101083.66;;;14.16;100.00
51460;BME280;37534;39.772;2.718;2023-04-25T05:16:54;101093.00;;;14.21;100.00
51460;BME280;37534;39.772;2.718;2023-04-25T05:19:20;101086.88;;;14.22;100.00
51460;BME280;37534;39.772;2.718;2023-04-25T05:21:45;101077.41;;;14.21;100.00
51460;BME280;37534;39.772;2.718;2023-04-25T05:24:11;101107.44;;;14.29;100.00
51460;BME280;37534;39.772;2.718;2023-04-25T05:26:37;101082.31;;;14.05;100.00
51460;BME280;37534;39.772;2.718;2023-04-25T05:29:03;101113.75;;;14.21;100.00
51460;BME280;37534;39.772;2.718;2023-04-25T05:31:28;101133.88;;;14.40;100.00
51460;BME280;37534;39.772;2.718;2023-04-25T05:33:54;101136.81;;;14.54;100.00
51460;BME280;37534;39.772;2.718;2023-04-25T05:36:20;101132.69;;;14.49;100.00
51460;BME280;37534;39.772;2.718;2023-04-25T05:38:45;101129.56;;;14.39;100.00
51460;BME280;37534;39.772;2.718;2023-04-25T05:41:11;101157.19;;;14.67;100.00
51460;BME280;37534;39.772;2.718;2023-04-25T05:43:36;101166.09;;;14.59;100.00
51460;BME280;37534;39.772;2.718;2023-04-25T05:46:02;101163.94;;;14.71;100.00
51460;BME280;37534;39.772;2.718;2023-04-25T05:48:28;101161.31;;;14.72;100.00
51460;BME280;37534;39.772;2.718;2023-04-25T05:50:53;101175.38;;;14.90;100.00
51460;BME280;37534;39.772;2.718;2023-04-25T05:53:20;101173.78;;;14.86;100.00
51460;BME280;37534;39.772;2.718;2023-04-25T05:55:47;101158.44;;;14.80;100.00
51460;BME280;37534;39.772;2.718;2023-04-25T05:58:12;101162.38;;;14.90;100.00
51460;BME280;37534;39.772;2.718;2023-04-25T06:00:38;101174.59;;;15.12;100.00
51460;BME280;37534;39.772;2.718;2023-04-25T06:03:03;101157.88;;;15.19;100.00
51460;BME280;37534;39.772;2.718;2023-04-25T06:05:29;101186.31;;;15.46;100.00
51460;BME280;37534;39.772;2.718;2023-04-25T06:07:55;101166.28;;;15.48;100.00
51460;BME280;37534;39.772;2.718;2023-04-25T06:10:21;101158.22;;;15.54;100.00
51460;BME280;37534;39.772;2.718;2023-04-25T06:12:46;101168.88;;;15.70;100.00
51460;BME280;37534;39.772;2.718;2023-04-25T06:15:12;101194.25;;;15.87;100.00
51460;BME280;37534;39.772;2.718;2023-04-25T06:17:37;101178.50;;;15.90;100.00
51460;BME280;37534;39.772;2.718;2023-04-25T06:20:03;101172.94;;;15.99;100.00
51460;BME280;37534;39.772;2.718;2023-04-25T06:22:29;101180.34;;;16.08;100.00
51460;BME280;37534;39.772;2.718;2023-04-25T06:24:54;101180.44;;;16.27;100.00
51460;BME280;37534;39.772;2.718;2023-04-25T06:27:22;101184.19;;;16.41;100.00
51460;BME280;37534;39.772;2.718;2023-04-25T06:29:48;101189.47;;;16.60;100.00
51460;BME280;37534;39.772;2.718;2023-04-25T06:32:13;101202.44;;;16.80;100.00
51460;BME280;37534;39.772;2.718;2023-04-25T06:34:39;101201.09;;;16.92;100.00
51460;BME280;37534;39.772;2.718;2023-04-25T06:37:04;101199.97;;;16.98;100.00
51460;BME280;37534;39.772;2.718;2023-04-25T06:39:30;101202.25;;;17.24;100.00
51460;BME280;37534;39.772;2.718;2023-04-25T06:41:56;101193.34;;;17.28;100.00
51460;BME280;37534;39.772;2.718;2023-04-25T06:44:21;101211.84;;;17.43;100.00
51460;BME280;37534;39.772;2.718;2023-04-25T06:46:49;101201.66;;;17.56;100.00
51460;BME280;37534;39.772;2.718;2023-04-25T06:49:14;101194.28;;;17.64;100.00
51460;BME280;37534;39.772;2.718;2023-04-25T06:51:41;101177.22;;;17.76;100.00
51460;BME280;37534;39.772;2.718;2023-04-25T06:54:06;101176.19;;;17.97;100.00
51460;BME280;37534;39.772;2.718;2023-04-25T06:56:32;101189.66;;;18.24;100.00
51460;BME280;37534;39.772;2.718;2023-04-25T06:58:57;101175.22;;;18.51;100.00
51460;BME280;37534;39.772;2.718;2023-04-25T07:01:23;101170.22;;;18.64;100.00
51460;BME280;37534;39.772;2.718;2023-04-25T07:03:49;101165.50;;;18.70;100.00
51460;BME280;37534;39.772;2.718;2023-04-25T07:06:14;101175.19;;;18.86;100.00
51460;BME280;37534;39.772;2.718;2023-04-25T07:08:40;101165.31;;;18.91;100.00
51460;BME280;37534;39.772;2.718;2023-04-25T07:11:17;101172.06;;;19.11;100.00
51460;BME280;37534;39.772;2.718;2023-04-25T07:13:45;101161.97;;;19.21;100.00
51460;BME280;37534;39.772;2.718;2023-04-25T07:16:10;101154.59;;;19.27;100.00
51460;BME280;37534;39.772;2.718;2023-04-25T07:18:36;101154.78;;;19.40;100.00
51460;BME280;37534;39.772;2.718;2023-04-25T07:21:01;101148.34;;;19.62;100.00
51460;BME280;37534;39.772;2.718;2023-04-25T07:23:27;101131.09;;;19.73;100.00
51460;BME280;37534;39.772;2.718;2023-04-25T07:25:52;101133.16;;;19.99;100.00
51460;BME280;37534;39.772;2.718;2023-04-25T07:28:18;101126.25;;;20.26;100.00
51460;BME280;37534;39.772;2.718;2023-04-25T07:30:44;101113.34;;;20.52;100.00
51460;BME280;37534;39.772;2.718;2023-04-25T07:33:09;101105.75;;;20.76;98.43
51460;BME280;37534;39.772;2.718;2023-04-25T07:35:35;101113.47;;;21.06;93.41
51460;BME280;37534;39.772;2.718;2023-04-25T07:38:02;101115.69;;;21.27;90.89
51460;BME280;37534;39.772;2.718;2023-04-25T07:40:28;101105.50;;;21.50;89.00
51460;BME280;37534;39.772;2.718;2023-04-25T07:42:53;101097.75;;;21.61;89.29
51460;BME280;37534;39.772;2.718;2023-04-25T07:45:19;101098.41;;;21.77;89.97
51460;BME280;37534;39.772;2.718;2023-04-25T07:47:44;101103.25;;;21.83;89.29
51460;BME280;37534;39.772;2.718;2023-04-25T07:50:10;101102.00;;;22.02;87.97
51460;BME280;37534;39.772;2.718;2023-04-25T07:52:36;101104.34;;;22.32;85.61
51460;BME280;37534;39.772;2.718;2023-04-25T07:55:01;101084.53;;;22.52;83.23
51460;BME280;37534;39.772;2.718;2023-04-25T07:57:27;101099.59;;;22.87;80.55
51460;BME280;37534;39.772;2.718;2023-04-25T07:59:52;101109.09;;;23.14;78.15
51460;BME280;37534;39.772;2.718;2023-04-25T08:02:18;101115.44;;;23.35;78.27
51460;BME280;37534;39.772;2.718;2023-04-25T08:04:43;101099.72;;;23.58;75.38
51460;BME280;37534;39.772;2.718;2023-04-25T08:07:09;101116.59;;;23.91;75.23
51460;BME280;37534;39.772;2.718;2023-04-25T08:09:35;101122.88;;;24.13;72.93
51460;BME280;37534;39.772;2.718;2023-04-25T08:12:02;101114.00;;;24.47;70.02
51460;BME280;37534;39.772;2.718;2023-04-25T08:14:28;101097.75;;;24.54;64.04
51460;BME280;37534;39.772;2.718;2023-04-25T08:16:56;101118.34;;;24.82;62.39
51460;BME280;37534;39.772;2.718;2023-04-25T08:19:22;101131.44;;;25.16;61.54
51460;BME280;37534;39.772;2.718;2023-04-25T08:21:47;101122.31;;;25.32;60.19
51460;BME280;37534;39.772;2.718;2023-04-25T08:24:13;101127.31;;;25.46;59.65
51460;BME280;37534;39.772;2.718;2023-04-25T08:26:39;101134.91;;;25.60;56.38
51460;BME280;37534;39.772;2.718;2023-04-25T08:29:04;101129.81;;;25.69;55.84
51460;BME280;37534;39.772;2.718;2023-04-25T08:31:30;101140.59;;;25.77;55.38
51460;BME280;37534;39.772;2.718;2023-04-25T08:33:56;101143.44;;;25.64;57.24
51460;BME280;37534;39.772;2.718;2023-04-25T08:36:22;101156.53;;;25.87;53.06
51460;BME280;37534;39.772;2.718;2023-04-25T08:38:47;101160.34;;;26.15;52.84
51460;BME280;37534;39.772;2.718;2023-04-25T08:41:13;101168.44;;;26.13;58.80
51460;BME280;37534;39.772;2.718;2023-04-25T08:43:42;101185.44;;;25.99;64.25
51460;BME280;37534;39.772;2.718;2023-04-25T08:46:09;101180.41;;;25.96;66.71
51460;BME280;37534;39.772;2.718;2023-04-25T08:48:36;101186.28;;;25.68;69.29
51460;BME280;37534;39.772;2.718;2023-04-25T08:51:02;101182.25;;;25.52;70.65
51460;BME280;37534;39.772;2.718;2023-04-25T08:53:32;101174.03;;;25.34;72.51
51460;BME280;37534;39.772;2.718;2023-04-25T08:56:00;101175.50;;;25.27;72.90
51460;BME280;37534;39.772;2.718;2023-04-25T08:58:29;101186.06;;;25.27;73.30
51460;BME280;37534;39.772;2.718;2023-04-25T09:00:54;101185.44;;;25.23;73.18
51460;BME280;37534;39.772;2.718;2023-04-25T09:03:20;101187.84;;;25.15;74.52
51460;BME280;37534;39.772;2.718;2023-04-25T09:05:46;101202.50;;;25.08;74.07
51460;BME280;37534;39.772;2.718;2023-04-25T09:08:11;101201.06;;;25.04;74.72
51460;BME280;37534;39.772;2.718;2023-04-25T09:10:37;101196.63;;;25.16;74.10
51460;BME280;37534;39.772;2.718;2023-04-25T09:13:12;101190.69;;;25.46;73.08
51460;BME280;37534;39.772;2.718;2023-04-25T09:15:57;101199.91;;;25.52;72.77
51460;BME280;37534;39.772;2.718;2023-04-25T09:18:32;101205.44;;;25.81;71.61
51460;BME280;37534;39.772;2.718;2023-04-25T09:21:09;101216.47;;;25.97;72.10
51460;BME280;37534;39.772;2.718;2023-04-25T09:23:46;101205.63;;;26.01;70.25
51460;BME280;37534;39.772;2.718;2023-04-25T09:26:16;101203.09;;;25.99;71.13
51460;BME280;37534;39.772;2.718;2023-04-25T09:28:42;101207.44;;;26.21;70.38
51460;BME280;37534;39.772;2.718;2023-04-25T09:31:10;101202.50;;;26.37;67.90
51460;BME280;37534;39.772;2.718;2023-04-25T09:33:36;101208.94;;;26.45;68.30
51460;BME280;37534;39.772;2.718;2023-04-25T09:36:09;101196.16;;;26.71;66.83
51460;BME280;37534;39.772;2.718;2023-04-25T09:38:43;101198.56;;;26.84;66.16
51460;BME280;37534;39.772;2.718;2023-04-25T09:41:10;101204.03;;;26.92;64.78
51460;BME280;37534;39.772;2.718;2023-04-25T09:43:36;101206.13;;;26.98;65.49
51460;BME280;37534;39.772;2.718;2023-04-25T09:46:02;101208.03;;;27.27;64.48
51460;BME280;37534;39.772;2.718;2023-04-25T09:48:28;101218.78;;;27.35;64.32
51460;BME280;37534;39.772;2.718;2023-04-25T09:51:10;101211.69;;;27.36;64.77
51460;BME280;37534;39.772;2.718;2023-04-25T09:53:44;101207.31;;;27.15;64.91
51460;BME280;37534;39.772;2.718;2023-04-25T09:56:11;101199.00;;;27.29;64.88
51460;BME280;37534;39.772;2.718;2023-04-25T09:58:39;101197.47;;;27.56;65.45
51460;BME280;37534;39.772;2.718;2023-04-25T10:01:06;101182.53;;;27.75;63.37
51460;BME280;37534;39.772;2.718;2023-04-25T10:03:34;101189.50;;;27.85;63.43
51460;BME280;37534;39.772;2.718;2023-04-25T10:06:05;101184.78;;;27.99;61.76
51460;BME280;37534;39.772;2.718;2023-04-25T10:08:35;101184.16;;;28.24;61.02
51460;BME280;37534;39.772;2.718;2023-04-25T10:11:06;101179.56;;;28.27;59.92
51460;BME280;37534;39.772;2.718;2023-04-25T10:13:33;101164.94;;;28.50;59.05
51460;BME280;37534;39.772;2.718;2023-04-25T10:16:00;101177.88;;;28.73;58.06
51460;BME280;37534;39.772;2.718;2023-04-25T10:18:27;101173.81;;;29.24;56.45
51460;BME280;37534;39.772;2.718;2023-04-25T10:20:55;101182.63;;;29.79;53.65
51460;BME280;37534;39.772;2.718;2023-04-25T10:23:21;101178.41;;;30.20;52.23
51460;BME280;37534;39.772;2.718;2023-04-25T10:25:47;101184.44;;;30.48;51.55
51460;BME280;37534;39.772;2.718;2023-04-25T10:28:14;101171.00;;;30.58;49.12
51460;BME280;37534;39.772;2.718;2023-04-25T10:30:57;101164.34;;;30.97;48.71
51460;BME280;37534;39.772;2.718;2023-04-25T10:33:40;101173.53;;;31.19;48.12
51460;BME280;37534;39.772;2.718;2023-04-25T10:36:15;101161.22;;;31.42;47.15
51460;BME280;37534;39.772;2.718;2023-04-25T10:38:43;101168.03;;;31.04;47.96
51460;BME280;37534;39.772;2.718;2023-04-25T10:41:11;101155.06;;;31.34;46.99
51460;BME280;37534;39.772;2.718;2023-04-25T10:43:38;101165.25;;;30.87;47.88
51460;BME280;37534;39.772;2.718;2023-04-25T10:48:56;101152.41;;;31.25;47.56
51460;BME280;37534;39.772;2.718;2023-04-25T10:51:40;101155.28;;;31.49;46.42
51460;BME280;37534;39.772;2.718;2023-04-25T10:54:07;101163.25;;;31.81;46.13
51460;BME280;37534;39.772;2.718;2023-04-25T10:56:41;101159.75;;;32.06;44.77
51460;BME280;37534;39.772;2.718;2023-04-25T10:59:19;101143.78;;;31.64;44.07
51460;BME280;37534;39.772;2.718;2023-04-25T11:01:46;101153.22;;;32.00;44.18
51460;BME280;37534;39.772;2.718;2023-04-25T11:04:25;101162.34;;;32.30;44.88
51460;BME280;37534;39.772;2.718;2023-04-25T11:09:33;101149.53;;;33.28;41.84
51460;BME280;37534;39.772;2.718;2023-04-25T11:11:59;101147.34;;;33.69;39.96
51460;BME280;37534;39.772;2.718;2023-04-25T11:14:26;101137.44;;;34.08;39.67
51460;BME280;37534;39.772;2.718;2023-04-25T11:16:58;101127.63;;;34.60;37.93
51460;BME280;37534;39.772;2.718;2023-04-25T11:19:25;101119.97;;;34.27;37.83
51460;BME280;37534;39.772;2.718;2023-04-25T11:21:58;101125.53;;;33.58;36.46
51460;BME280;37534;39.772;2.718;2023-04-25T11:24:31;101110.94;;;33.83;37.72
51460;BME280;37534;39.772;2.718;2023-04-25T11:27:01;101108.91;;;34.30;36.43
51460;BME280;37534;39.772;2.718;2023-04-25T11:29:31;101100.97;;;34.37;35.15
51460;BME280;37534;39.772;2.718;2023-04-25T11:31:58;101096.44;;;34.37;34.87
51460;BME280;37534;39.772;2.718;2023-04-25T11:34:28;101093.56;;;34.39;35.36
51460;BME280;37534;39.772;2.718;2023-04-25T11:36:56;101106.09;;;34.53;35.09
51460;BME280;37534;39.772;2.718;2023-04-25T11:39:23;101098.38;;;34.80;35.11
51460;BME280;37534;39.772;2.718;2023-04-25T11:41:49;101107.38;;;34.57;35.06
51460;BME280;37534;39.772;2.718;2023-04-25T11:44:16;101105.84;;;34.03;36.17
51460;BME280;37534;39.772;2.718;2023-04-25T11:46:42;101094.94;;;33.75;35.88
51460;BME280;37534;39.772;2.718;2023-04-25T11:49:08;101068.38;;;33.21;35.62
51460;BME280;37534;39.772;2.718;2023-04-25T11:51:47;101101.53;;;33.49;34.60
51460;BME280;37534;39.772;2.718;2023-04-25T11:54:14;101096.72;;;33.45;34.60
51460;BME280;37534;39.772;2.718;2023-04-25T11:56:44;101093.69;;;33.33;32.32
51460;BME280;37534;39.772;2.718;2023-04-25T11:59:10;101096.09;;;33.58;32.14
51460;BME280;37534;39.772;2.718;2023-04-25T12:01:39;101092.41;;;33.59;33.60
51460;BME280;37534;39.772;2.718;2023-04-25T12:04:16;101093.16;;;33.52;33.85
51460;BME280;37534;39.772;2.718;2023-04-25T12:06:42;101095.31;;;33.72;32.43
51460;BME280;37534;39.772;2.718;2023-04-25T12:09:12;101089.72;;;33.67;33.39
51460;BME280;37534;39.772;2.718;2023-04-25T12:11:46;101088.50;;;33.99;32.14
51460;BME280;37534;39.772;2.718;2023-04-25T12:14:20;101100.69;;;34.02;31.54
51460;BME280;37534;39.772;2.718;2023-04-25T12:16:48;101101.63;;;33.94;30.34
51460;BME280;37534;39.772;2.718;2023-04-25T12:19:18;101091.38;;;33.98;31.34
51460;BME280;37534;39.772;2.718;2023-04-25T12:21:44;101084.34;;;34.26;31.38
51460;BME280;37534;39.772;2.718;2023-04-25T12:29:19;101066.06;;;34.15;28.11
51460;BME280;37534;39.772;2.718;2023-04-25T12:31:46;101064.41;;;33.84;28.86
51460;BME280;37534;39.772;2.718;2023-04-25T12:34:12;101050.03;;;33.70;28.88
51460;BME280;37534;39.772;2.718;2023-04-25T12:36:37;101046.97;;;33.88;28.95
51460;BME280;37534;39.772;2.718;2023-04-25T12:39:04;101048.31;;;34.14;28.27
51460;BME280;37534;39.772;2.718;2023-04-25T12:41:30;101054.81;;;33.75;28.58
51460;BME280;37534;39.772;2.718;2023-04-25T12:43:55;101047.63;;;33.23;28.29
51460;BME280;37534;39.772;2.718;2023-04-25T12:46:21;101040.25;;;33.02;29.11
51460;BME280;37534;39.772;2.718;2023-04-25T12:48:48;101030.84;;;33.29;29.11
51460;BME280;37534;39.772;2.718;2023-04-25T12:51:14;101051.13;;;33.00;28.26
51460;BME280;37534;39.772;2.718;2023-04-25T12:53:40;101050.03;;;33.09;29.00
51460;BME280;37534;39.772;2.718;2023-04-25T12:56:09;101037.56;;;32.55;28.52
51460;BME280;37534;39.772;2.718;2023-04-25T12:58:35;101033.53;;;32.59;29.09
51460;BME280;37534;39.772;2.718;2023-04-25T13:01:00;101027.03;;;31.75;28.98
51460;BME280;37534;39.772;2.718;2023-04-25T13:03:26;101026.69;;;31.86;28.53
51460;BME280;37534;39.772;2.718;2023-04-25T13:05:52;101031.81;;;31.96;30.22
51460;BME280;37534;39.772;2.718;2023-04-25T13:08:18;101022.09;;;32.11;29.32
51460;BME280;37534;39.772;2.718;2023-04-25T13:10:44;101030.25;;;32.18;29.14
51460;BME280;37534;39.772;2.718;2023-04-25T13:13:10;101027.41;;;32.19;29.52
51460;BME280;37534;39.772;2.718;2023-04-25T13:15:35;101015.88;;;32.19;29.72
51460;BME280;37534;39.772;2.718;2023-04-25T13:18:03;101023.88;;;32.27;30.46
51460;BME280;37534;39.772;2.718;2023-04-25T13:20:30;101012.78;;;32.38;30.32
51460;BME280;37534;39.772;2.718;2023-04-25T13:22:57;101013.84;;;32.29;29.96
51460;BME280;37534;39.772;2.718;2023-04-25T13:25:22;101000.94;;;32.10;30.77